createdAt,value
2019-05-06T00:02:28.261Z,56.6
2019-05-06T00:07:27.495Z,56.6
2019-05-06T00:12:27.941Z,56.4
2019-05-06T00:17:29.067Z,56.3
2019-05-06T00:22:28.225Z,56.2
2019-05-06T00:27:28.314Z,56.2
2019-05-06T00:32:29.689Z,56.1
2019-05-06T00:37:28.378Z,56.0
2019-05-06T00:42:27.957Z,56.1
2019-05-06T00:47:28.250Z,56.2
2019-05-06T00:52:28.377Z,55.9
2019-05-06T00:57:28.235Z,56.2
2019-05-06T01:02:28.244Z,56.2
2019-05-06T01:07:30.451Z,56.3
2019-05-06T01:12:28.567Z,56.1
2019-05-06T01:17:28.527Z,56.1
2019-05-06T01:22:27.814Z,56.1
2019-05-06T01:27:28.094Z,56.2
2019-05-06T01:32:29.112Z,56.4
2019-05-06T01:37:28.458Z,56.4
2019-05-06T01:42:28.781Z,56.3
2019-05-06T01:47:28.337Z,56.3
2019-05-06T01:52:27.612Z,56.3
2019-05-06T01:57:27.446Z,56.4
2019-05-06T02:02:27.955Z,56.5
2019-05-06T02:07:28.497Z,56.3
2019-05-06T02:12:28.359Z,56.2
2019-05-06T02:17:28.811Z,56.2
2019-05-06T02:22:28.238Z,56.4
2019-05-06T02:27:27.338Z,56.5
2019-05-06T02:32:35.488Z,56.4
2019-05-06T02:37:28.406Z,56.5
2019-05-06T02:42:28.366Z,56.4
2019-05-06T02:47:27.814Z,56.5
2019-05-06T02:52:28.687Z,56.5
2019-05-06T02:57:27.737Z,56.6
2019-05-06T03:02:46.999Z,56.6
2019-05-06T03:07:27.984Z,56.6
2019-05-06T03:12:28.541Z,56.6
2019-05-06T03:17:32.594Z,56.5
2019-05-06T03:22:28.387Z,56.6
2019-05-06T03:27:28.367Z,56.4
2019-05-06T03:32:38.073Z,56.5
2019-05-06T03:37:29.164Z,56.6
2019-05-06T03:42:29.041Z,56.7
2019-05-06T03:47:28.450Z,56.7
2019-05-06T03:52:29.491Z,56.7
2019-05-06T03:57:28.695Z,56.8
2019-05-06T04:02:29.104Z,56.9
2019-05-06T04:07:28.502Z,56.9
2019-05-06T04:12:28.656Z,56.9
2019-05-06T04:17:28.899Z,56.9
2019-05-06T04:22:28.966Z,56.8
2019-05-06T04:27:29.631Z,56.8
2019-05-06T04:32:29.827Z,56.8
2019-05-06T04:37:28.730Z,56.8
2019-05-06T04:42:29.144Z,56.9
2019-05-06T04:47:28.354Z,56.9
2019-05-06T04:52:33.620Z,57.0
2019-05-06T04:57:28.506Z,57.0
2019-05-06T05:02:28.749Z,56.9
2019-05-06T05:07:29.291Z,57.1
2019-05-06T05:12:28.388Z,56.9
2019-05-06T05:17:30.123Z,56.8
2019-05-06T05:22:27.940Z,56.9
2019-05-06T05:27:28.343Z,57.0
2019-05-06T05:32:29.140Z,57.0
2019-05-06T05:37:29.207Z,56.9
2019-05-06T05:42:28.864Z,57.1
2019-05-06T05:47:28.747Z,57.0
2019-05-06T05:52:29.969Z,57.1
2019-05-06T05:57:28.642Z,57.2
2019-05-06T06:02:28.860Z,57.1
2019-05-06T06:07:28.811Z,57.3
2019-05-06T06:12:29.290Z,57.2
2019-05-06T06:17:29.676Z,57.4
2019-05-06T06:22:29.091Z,57.3
2019-05-06T06:27:28.122Z,57.3
2019-05-06T06:32:28.580Z,57.2
2019-05-06T06:37:27.786Z,57.5
2019-05-06T06:42:29.486Z,57.6
2019-05-06T06:47:28.443Z,57.7
2019-05-06T06:52:28.246Z,57.7
2019-05-06T06:57:34.291Z,58.0
2019-05-06T07:02:29.044Z,57.9
2019-05-06T07:07:46.720Z,58.0
2019-05-06T07:12:29.387Z,58.4
2019-05-06T07:17:28.870Z,58.4
2019-05-06T07:22:28.660Z,58.4
2019-05-06T07:27:28.538Z,58.6
2019-05-06T07:32:28.495Z,58.6
2019-05-06T07:37:28.883Z,58.3
2019-05-06T07:42:29.329Z,58.2
2019-05-06T07:47:28.868Z,58.3
2019-05-06T07:52:28.679Z,58.1
2019-05-06T07:57:28.817Z,58.1
2019-05-06T08:02:28.413Z,57.9
2019-05-06T08:07:30.161Z,57.8
2019-05-06T08:12:28.946Z,57.7
2019-05-06T08:17:29.099Z,57.7
2019-05-06T08:22:28.576Z,57.7
2019-05-06T08:27:28.873Z,57.8
2019-05-06T08:32:28.550Z,57.8
2019-05-06T08:37:28.484Z,57.6
2019-05-06T08:42:28.421Z,57.5
2019-05-06T08:47:29.431Z,57.6
2019-05-06T08:52:27.957Z,57.5
2019-05-06T08:57:29.384Z,57.8
2019-05-06T09:02:28.660Z,57.7
2019-05-06T09:07:28.548Z,57.9
2019-05-06T09:12:29.382Z,58.2
2019-05-06T09:17:29.164Z,58.2
2019-05-06T09:22:28.947Z,58.8
2019-05-06T09:27:29.651Z,58.9
2019-05-06T09:32:28.531Z,58.8
2019-05-06T09:37:29.592Z,58.7
2019-05-06T09:42:28.668Z,58.2
2019-05-06T09:47:28.887Z,58.2
2019-05-06T09:52:28.597Z,57.7
2019-05-06T09:57:28.589Z,57.3
2019-05-06T10:02:29.226Z,57.3
2019-05-06T10:07:29.127Z,57.5
2019-05-06T10:12:29.752Z,57.1
2019-05-06T10:17:29.351Z,57.4
2019-05-06T10:22:28.592Z,57.4
2019-05-06T10:27:29.034Z,57.9
2019-05-06T10:32:29.543Z,58.3
2019-05-06T10:37:28.428Z,58.7
2019-05-06T10:42:28.430Z,59.0
2019-05-06T10:47:28.918Z,59.4
2019-05-06T10:52:29.819Z,59.8
2019-05-06T10:57:28.427Z,59.1
2019-05-06T11:02:28.680Z,59.1
2019-05-06T11:07:35.175Z,58.2
2019-05-06T11:12:28.817Z,58.2
2019-05-06T11:17:29.666Z,58.4
2019-05-06T11:22:28.767Z,57.8
2019-05-06T11:27:37.102Z,57.6
2019-05-06T11:32:29.277Z,57.7
2019-05-06T11:37:49.234Z,57.9
2019-05-06T11:42:35.755Z,57.4
2019-05-06T11:47:32.937Z,57.8
2019-05-06T11:52:28.824Z,57.9
2019-05-06T11:57:28.899Z,57.9
2019-05-06T12:02:29.254Z,57.7
2019-05-06T12:07:29.158Z,57.5
2019-05-06T12:12:29.266Z,57.1
2019-05-06T12:17:29.787Z,57.7
2019-05-06T12:22:29.410Z,58.1
2019-05-06T12:27:28.607Z,58.1
2019-05-06T12:32:28.377Z,58.2
2019-05-06T12:37:28.912Z,58.2
2019-05-06T12:42:28.574Z,58.3
2019-05-06T12:47:29.671Z,58.9
2019-05-06T12:52:29.122Z,58.4
2019-05-06T12:57:28.386Z,58.3
2019-05-06T13:02:28.820Z,58.5
2019-05-06T13:07:28.662Z,58.1
2019-05-06T13:12:28.920Z,58.6
2019-05-06T13:17:28.570Z,59.7
2019-05-06T13:22:28.609Z,59.6
2019-05-06T13:27:28.267Z,59.7
2019-05-06T13:32:32.251Z,59.3
2019-05-06T13:37:28.330Z,59.7
2019-05-06T13:42:28.856Z,59.6
2019-05-06T13:47:28.773Z,59.6
2019-05-06T13:52:28.188Z,59.6
2019-05-06T13:57:31.910Z,59.6
2019-05-06T14:02:28.377Z,59.5
2019-05-06T14:07:28.579Z,59.6
2019-05-06T14:12:28.711Z,59.6
2019-05-06T14:17:32.515Z,59.2
2019-05-06T14:22:28.772Z,58.7
2019-05-06T14:27:29.683Z,58.7
2019-05-06T14:32:28.418Z,58.4
2019-05-06T14:37:28.883Z,57.9
2019-05-06T14:42:28.962Z,57.8
2019-05-06T14:47:29.082Z,57.4
2019-05-06T14:52:28.618Z,56.3
2019-05-06T14:57:29.170Z,56.4
2019-05-06T15:02:29.250Z,56.3
2019-05-06T15:07:29.564Z,52.6
2019-05-06T15:12:28.798Z,53.0
2019-05-06T15:17:29.382Z,54.7
2019-05-06T15:22:28.652Z,46.3
2019-05-06T15:27:28.880Z,46.3
2019-05-06T15:32:28.956Z,45.2
2019-05-06T15:37:28.392Z,52.3
2019-05-06T15:42:28.666Z,56.7
2019-05-06T15:47:28.887Z,58.5
2019-05-06T15:52:28.285Z,59.5
2019-05-06T15:57:28.359Z,60.4
2019-05-06T16:02:29.267Z,60.5
2019-05-06T16:07:37.188Z,60.6
2019-05-06T16:12:28.624Z,60.5
2019-05-06T16:17:29.149Z,60.6
2019-05-06T16:22:28.739Z,60.5
2019-05-06T16:27:29.059Z,60.4
2019-05-06T16:32:28.298Z,60.5
2019-05-06T16:37:28.071Z,60.5
2019-05-06T16:42:28.841Z,60.4
2019-05-06T16:47:29.626Z,60.5
2019-05-06T16:52:30.144Z,60.6
2019-05-06T16:57:29.058Z,60.5
2019-05-06T17:02:29.393Z,60.4
2019-05-06T17:07:28.906Z,60.4
2019-05-06T17:12:29.149Z,60.4
2019-05-06T17:17:46.223Z,60.2
2019-05-06T17:22:29.041Z,60.0
2019-05-06T17:27:31.701Z,60.1
2019-05-06T17:32:28.220Z,60.4
2019-05-06T17:37:28.842Z,60.2
2019-05-06T17:42:28.954Z,60.3
2019-05-06T17:47:29.270Z,60.5
2019-05-06T17:52:28.451Z,60.5
2019-05-06T17:57:28.320Z,60.6
2019-05-06T18:02:28.709Z,60.7
2019-05-06T18:07:29.496Z,60.9
2019-05-06T18:12:30.208Z,60.9
2019-05-06T18:17:29.244Z,61.1
2019-05-06T18:22:29.003Z,61.1
2019-05-06T18:27:29.012Z,61.6
2019-05-06T18:32:29.253Z,61.6
2019-05-06T18:37:28.676Z,61.8
2019-05-06T18:42:28.905Z,61.8
2019-05-06T18:47:28.764Z,61.9
2019-05-06T18:52:29.433Z,61.9
2019-05-06T18:57:29.336Z,62.0
2019-05-06T19:02:28.087Z,62.1
2019-05-06T19:07:28.910Z,62.0
2019-05-06T19:12:40.395Z,62.1
2019-05-06T19:17:29.139Z,62.1
2019-05-06T19:22:28.329Z,62.2
2019-05-06T19:27:28.514Z,62.1
2019-05-06T19:32:28.911Z,62.1
2019-05-06T19:37:28.613Z,62.1
2019-05-06T19:42:42.137Z,62.1
2019-05-06T19:47:29.210Z,62.0
2019-05-06T19:52:28.504Z,61.9
2019-05-06T19:57:27.810Z,61.9
2019-05-06T20:02:28.091Z,61.8
2019-05-06T20:07:28.788Z,61.7
2019-05-06T20:12:29.295Z,61.7
2019-05-06T20:17:28.363Z,61.7
2019-05-06T20:22:27.779Z,61.7
2019-05-06T20:27:28.486Z,61.3
2019-05-06T20:32:28.287Z,61.3
2019-05-06T20:37:27.907Z,61.2
2019-05-06T20:42:28.369Z,61.1
2019-05-06T20:47:28.398Z,61.3
2019-05-06T20:52:33.133Z,61.1
2019-05-06T20:57:28.233Z,60.8
2019-05-06T21:02:27.866Z,60.8
2019-05-06T21:07:28.700Z,60.8
2019-05-06T21:12:28.566Z,60.7
2019-05-06T21:17:28.175Z,60.6
2019-05-06T21:22:27.816Z,60.5
2019-05-06T21:27:27.641Z,60.5
2019-05-06T21:32:28.511Z,60.6
2019-05-06T21:37:28.394Z,60.6
2019-05-06T21:42:28.428Z,60.6
2019-05-06T21:47:27.629Z,60.6
2019-05-06T21:52:39.675Z,60.7
2019-05-06T21:57:28.702Z,60.6
2019-05-06T22:02:28.788Z,60.5
2019-05-06T22:07:29.522Z,60.5
2019-05-06T22:12:27.606Z,60.6
2019-05-06T22:22:47.189Z,60.2
2019-05-06T22:27:46.381Z,60.5
2019-05-06T22:32:46.010Z,60.4
2019-05-06T22:37:46.357Z,60.3
2019-05-06T22:42:45.768Z,60.6
2019-05-06T22:47:46.537Z,60.5
2019-05-06T22:52:46.504Z,60.4
2019-05-06T22:57:46.344Z,60.4
2019-05-06T23:02:46.766Z,60.4
2019-05-06T23:07:46.628Z,60.5
2019-05-06T23:12:28.251Z,60.4
2019-05-06T23:17:28.140Z,60.3
2019-05-06T23:22:27.907Z,60.5
2019-05-06T23:27:28.031Z,60.5
2019-05-06T23:32:27.796Z,60.4
2019-05-06T23:37:28.351Z,60.5
2019-05-06T23:42:28.005Z,60.4
2019-05-06T23:47:28.224Z,60.2
2019-05-06T23:52:27.970Z,60.4
2019-05-06T23:57:28.662Z,60.4
